createdAt,value
2022-11-25T00:03:49.183Z,100084.69
2022-11-25T00:08:54.536Z,100079.28
2022-11-25T00:13:59.340Z,100070.47
2022-11-25T00:19:02.088Z,100073.28
2022-11-25T00:24:07.221Z,100068.84
2022-11-25T00:29:14.408Z,100062.81
2022-11-25T00:34:17.163Z,100057.41
2022-11-25T00:39:24.384Z,100064.75
2022-11-25T00:44:38.579Z,100056.66
2022-11-25T00:49:44.543Z,100066.59
2022-11-25T00:54:48.606Z,100061.44
2022-11-25T00:59:52.807Z,100072.13
2022-11-25T01:04:57.086Z,100069.66
2022-11-25T01:09:59.832Z,100068.06
2022-11-25T01:15:03.955Z,100077.13
2022-11-25T01:20:08.205Z,100066.22
2022-11-25T01:25:11.107Z,100067.22
2022-11-25T01:30:17.095Z,100073.69
2022-11-25T01:35:19.865Z,100068.19
2022-11-25T01:40:22.749Z,100078.22
2022-11-25T01:45:38.478Z,100067.44
2022-11-25T01:50:43.488Z,100067.81
2022-11-25T01:55:52.462Z,100067.06
2022-11-25T02:00:56.741Z,100061.66
2022-11-25T02:06:06.931Z,100061.06
2022-11-25T02:11:10.040Z,100062.88
2022-11-25T02:16:14.255Z,100073.66
2022-11-25T02:21:21.615Z,100075.50
2022-11-25T02:26:25.898Z,100067.66
2022-11-25T02:31:28.926Z,100075.75
2022-11-25T02:36:31.887Z,100070.09
2022-11-25T02:41:38.753Z,100075.63
2022-11-25T02:46:41.974Z,100083.84
2022-11-25T02:51:46.310Z,100068.75
2022-11-25T02:56:50.394Z,100072.41
2022-11-25T03:01:53.325Z,100069.72
2022-11-25T03:06:56.113Z,100076.22
2022-11-25T03:12:19.106Z,100074.59
2022-11-25T03:17:22.103Z,100074.50
2022-11-25T03:22:25.338Z,100075.25
2022-11-25T03:27:30.486Z,100078.78
2022-11-25T03:32:34.115Z,100076.31
2022-11-25T03:37:37.199Z,100084.41
2022-11-25T03:42:42.424Z,100082.69
2022-11-25T03:47:46.571Z,100082.94
2022-11-25T03:52:49.531Z,100090.06
2022-11-25T03:57:55.238Z,100089.34
2022-11-25T04:02:59.814Z,100084.03
2022-11-25T04:08:02.710Z,100077.06
2022-11-25T04:13:08.600Z,100079.63
2022-11-25T04:18:15.458Z,100076.91
2022-11-25T04:23:19.243Z,100083.31
2022-11-25T04:28:32.353Z,100081.59
2022-11-25T04:33:35.131Z,100087.78
2022-11-25T04:38:38.560Z,100085.22
2022-11-25T04:43:43.842Z,100089.78
2022-11-25T04:48:49.429Z,100091.03
2022-11-25T04:53:52.580Z,100086.16
2022-11-25T04:59:14.037Z,100089.50
2022-11-25T05:04:20.953Z,100088.63
2022-11-25T05:09:24.674Z,100096.47
2022-11-25T05:14:40.063Z,100091.22
2022-11-25T05:19:44.073Z,100090.34
2022-11-25T05:24:47.166Z,100092.06
2022-11-25T05:29:55.987Z,100083.00
2022-11-25T05:35:00.201Z,100083.88
2022-11-25T05:40:04.321Z,100091.09
2022-11-25T05:45:34.473Z,100085.81
2022-11-25T05:50:38.740Z,100093.06
2022-11-25T05:56:08.763Z,100101.13
2022-11-25T06:01:34.567Z,100100.38
2022-11-25T06:06:37.445Z,100094.03
2022-11-25T06:11:40.307Z,100095.75
2022-11-25T06:16:45.699Z,100102.13
2022-11-25T06:22:03.218Z,100094.88
2022-11-25T06:27:06.403Z,100102.13
2022-11-25T06:32:11.348Z,100106.66
2022-11-25T06:37:28.004Z,100110.28
2022-11-25T06:42:30.785Z,100121.06
2022-11-25T06:47:34.910Z,100124.75
2022-11-25T06:52:37.733Z,100126.59
2022-11-25T06:57:40.521Z,100132.84
2022-11-25T07:02:48.525Z,100133.81
2022-11-25T07:07:51.831Z,100131.00
2022-11-25T07:12:54.648Z,100138.34
2022-11-25T07:17:58.715Z,100140.06
2022-11-25T07:23:01.705Z,100144.59
2022-11-25T07:28:04.769Z,100143.63
2022-11-25T07:33:09.020Z,100151.50
2022-11-25T07:38:11.824Z,100155.16
2022-11-25T07:43:14.773Z,100152.34
2022-11-25T07:48:18.890Z,100150.38
2022-11-25T07:53:21.874Z,100149.44
2022-11-25T07:58:24.635Z,100158.38
2022-11-25T08:03:28.743Z,100153.88
2022-11-25T08:08:31.753Z,100157.31
2022-11-25T08:13:34.529Z,100157.31
2022-11-25T08:18:38.768Z,100162.06
2022-11-25T08:23:43.953Z,100157.09
2022-11-25T08:28:47.978Z,100166.13
2022-11-25T08:33:53.745Z,100166.09
2022-11-25T08:38:58.647Z,100177.84
2022-11-25T08:44:04.798Z,100171.66
2022-11-25T08:49:10.714Z,100162.13
2022-11-25T08:54:14.385Z,100163.00
2022-11-25T08:59:17.174Z,100168.50
2022-11-25T09:04:21.378Z,100174.00
2022-11-25T09:09:24.204Z,100171.63
2022-11-25T09:14:27.255Z,100176.59
2022-11-25T09:19:31.486Z,100178.13
2022-11-25T09:24:35.921Z,100184.91
2022-11-25T09:29:39.663Z,100184.69
2022-11-25T09:34:44.034Z,100182.63
2022-11-25T09:39:46.850Z,100179.63
2022-11-25T09:45:21.648Z,100188.22
2022-11-25T09:50:40.693Z,100188.13
2022-11-25T09:55:47.220Z,100179.84
2022-11-25T10:00:52.503Z,100179.59
2022-11-25T10:06:04.101Z,100179.28
2022-11-25T10:11:23.386Z,100173.56
2022-11-25T10:16:36.428Z,100167.97
2022-11-25T10:21:40.914Z,100163.19
2022-11-25T10:26:45.790Z,100167.50
2022-11-25T10:31:51.554Z,100171.81
2022-11-25T10:36:58.229Z,100162.75
2022-11-25T10:42:08.260Z,100174.16
2022-11-25T10:47:24.745Z,100168.66
2022-11-25T10:52:30.557Z,100175.44
2022-11-25T10:57:33.327Z,100169.19
2022-11-25T11:02:40.353Z,100166.38
2022-11-25T11:07:46.139Z,100173.38
2022-11-25T11:12:57.030Z,100175.84
2022-11-25T11:18:01.862Z,100165.28
2022-11-25T11:23:15.394Z,100158.56
2022-11-25T11:28:27.519Z,100154.03
2022-11-25T11:33:35.478Z,100140.22
2022-11-25T11:38:52.728Z,100143.31
2022-11-25T11:44:10.124Z,100149.34
2022-11-25T11:49:38.078Z,100140.28
2022-11-25T11:54:46.498Z,100127.00
2022-11-25T11:59:50.823Z,100128.56
2022-11-25T12:05:02.969Z,100121.75
2022-11-25T12:10:21.093Z,100130.34
2022-11-25T12:15:33.224Z,100127.13
2022-11-25T12:20:43.548Z,100127.25
2022-11-25T12:25:52.960Z,100122.84
2022-11-25T12:31:07.233Z,100112.56
2022-11-25T12:36:16.860Z,100120.53
2022-11-25T12:41:27.925Z,100117.72
2022-11-25T12:46:37.631Z,100130.34
2022-11-25T12:52:01.574Z,100128.03
2022-11-25T12:57:27.874Z,100137.50
2022-11-25T13:02:55.550Z,100143.53
2022-11-25T13:08:11.998Z,100138.41
2022-11-25T13:13:33.257Z,100135.34
2022-11-25T13:18:42.660Z,100142.97
2022-11-25T13:23:52.040Z,100145.31
2022-11-25T13:28:57.024Z,100149.50
2022-11-25T13:34:09.525Z,100158.03
2022-11-25T13:39:15.891Z,100159.66
2022-11-25T13:44:32.437Z,100155.84
2022-11-25T13:49:44.295Z,100160.13
2022-11-25T13:54:50.598Z,100166.28
2022-11-25T13:59:57.955Z,100174.97
2022-11-25T14:05:09.721Z,100182.84
2022-11-25T14:10:27.597Z,100185.44
2022-11-25T14:16:07.267Z,100193.53
2022-11-25T14:21:25.179Z,100205.19
2022-11-25T14:26:49.323Z,100205.09
2022-11-25T14:31:58.712Z,100210.09
2022-11-25T14:37:11.571Z,100215.91
2022-11-25T14:42:17.513Z,100224.22
2022-11-25T14:47:24.744Z,100235.75
2022-11-25T14:52:30.007Z,100241.16
2022-11-25T14:57:37.199Z,100248.19
2022-11-25T15:02:52.475Z,100250.38
2022-11-25T15:07:59.296Z,100254.66
2022-11-25T15:13:12.429Z,100255.78
2022-11-25T15:18:22.656Z,100271.13
2022-11-25T15:23:31.697Z,100276.25
2022-11-25T15:28:36.518Z,100277.03
2022-11-25T15:33:42.469Z,100274.44
2022-11-25T15:38:47.038Z,100279.72
2022-11-25T15:43:51.813Z,100284.13
2022-11-25T15:48:59.107Z,100287.81
2022-11-25T15:54:06.155Z,100286.72
2022-11-25T15:59:56.603Z,100292.88
2022-11-25T16:05:16.546Z,100293.84
2022-11-25T16:10:20.028Z,100297.16
2022-11-25T16:15:45.119Z,100301.72
2022-11-25T16:20:52.130Z,100299.13
2022-11-25T16:25:59.735Z,100308.97
2022-11-25T16:31:02.545Z,100312.50
2022-11-25T16:36:09.642Z,100312.38
2022-11-25T16:41:21.133Z,100315.13
2022-11-25T16:46:24.166Z,100322.41
2022-11-25T16:51:28.385Z,100322.78
2022-11-25T16:56:33.190Z,100322.69
2022-11-25T17:01:36.207Z,100328.81
2022-11-25T17:06:41.314Z,100324.81
2022-11-25T17:11:47.021Z,100334.28
2022-11-25T17:16:50.179Z,100336.50
2022-11-25T17:21:54.409Z,100338.22
2022-11-25T17:27:00.412Z,100339.22
2022-11-25T17:32:03.717Z,100345.25
2022-11-25T17:37:14.875Z,100356.69
2022-11-25T17:42:19.511Z,100364.44
2022-11-25T17:47:22.487Z,100366.78
2022-11-25T17:52:26.687Z,100380.06
2022-11-25T17:57:29.739Z,100384.13
2022-11-25T18:02:32.554Z,100387.31
2022-11-25T18:07:36.877Z,100395.19
2022-11-25T18:12:41.057Z,100402.09
2022-11-25T18:17:44.473Z,100420.75
2022-11-25T18:22:49.440Z,100418.69
2022-11-25T18:27:56.239Z,100421.16
2022-11-25T18:32:59.186Z,100430.03
2022-11-25T18:38:03.391Z,100438.75
2022-11-25T18:43:07.582Z,100440.25
2022-11-25T18:48:15.753Z,100449.13
2022-11-25T18:53:20.627Z,100455.41
2022-11-25T18:58:27.169Z,100455.75
2022-11-25T19:03:29.974Z,100462.63
2022-11-25T19:08:34.154Z,100465.03
2022-11-25T19:13:38.100Z,100469.22
2022-11-25T19:18:41.486Z,100475.13
2022-11-25T19:23:46.318Z,100477.81
2022-11-25T19:28:55.854Z,100486.50
2022-11-25T19:33:59.210Z,100501.03
2022-11-25T19:39:03.347Z,100511.97
2022-11-25T19:44:06.105Z,100520.56
2022-11-25T19:49:09.092Z,100527.16
2022-11-25T19:54:16.502Z,100538.84
2022-11-25T19:59:19.335Z,100559.97
2022-11-25T20:04:23.403Z,100558.59
2022-11-25T20:09:27.555Z,100568.41
2022-11-25T20:14:34.538Z,100576.66
2022-11-25T20:19:37.652Z,100576.66
2022-11-25T20:24:41.885Z,100582.19
2022-11-25T20:29:44.651Z,100594.84
2022-11-25T20:34:47.919Z,100594.06
2022-11-25T20:39:53.871Z,100606.72
2022-11-25T20:44:57.872Z,100609.69
2022-11-25T20:50:00.897Z,100609.91
2022-11-25T20:55:15.503Z,100612.72
2022-11-25T21:00:24.193Z,100626.13
2022-11-25T21:05:28.378Z,100631.00
2022-11-25T21:10:34.719Z,100638.16
2022-11-25T21:15:37.856Z,100646.34
2022-11-25T21:20:41.687Z,100650.69
2022-11-25T21:25:46.537Z,100656.41
2022-11-25T21:30:49.523Z,100657.28
2022-11-25T21:35:52.549Z,100663.03
2022-11-25T21:40:59.148Z,100678.25
2022-11-25T21:46:05.276Z,100678.25
2022-11-25T21:51:09.562Z,100682.72
2022-11-25T21:56:19.003Z,100684.75
2022-11-25T22:01:22.696Z,100692.13
2022-11-25T22:06:27.698Z,100700.31
2022-11-25T22:11:34.105Z,100709.53
2022-11-25T22:16:37.591Z,100714.06
2022-11-25T22:21:40.420Z,100720.50
2022-11-25T22:26:46.559Z,100725.91
2022-11-25T22:31:50.893Z,100724.88
2022-11-25T22:36:53.741Z,100736.09
2022-11-25T22:42:04.422Z,100742.44
2022-11-25T22:47:08.751Z,100749.69
2022-11-25T22:52:20.478Z,100763.31
2022-11-25T22:57:24.648Z,100760.75
2022-11-25T23:02:33.882Z,100762.47
2022-11-25T23:07:36.802Z,100767.88
2022-11-25T23:12:40.941Z,100776.94
2022-11-25T23:17:48.826Z,100782.47
2022-11-25T23:22:51.618Z,100784.41
2022-11-25T23:27:55.895Z,100790.56
2022-11-25T23:32:59.047Z,100794.34
2022-11-25T23:38:01.818Z,100794.22
2022-11-25T23:43:12.892Z,100797.91
2022-11-25T23:48:16.337Z,100800.91
2022-11-25T23:53:25.673Z,100807.97
2022-11-25T23:58:30.067Z,100808.28
